sensor_id;sensor_type;location;lat;lon;timestamp;pressure;altitude;pressure_sealevel;temperature;humidity
84522;BME280;74758;50.066;20.008;2024-03-07T00:00:05;99774.53;;;4.36;73.13
84522;BME280;74758;50.066;20.008;2024-03-07T00:01:16;99772.64;;;4.36;73.25
84522;BME280;74758;50.066;20.008;2024-03-07T00:02:18;99770.92;;;4.35;73.43
84522;BME280;74758;50.066;20.008;2024-03-07T00:03:20;99770.08;;;4.35;73.34
84522;BME280;74758;50.066;20.008;2024-03-07T00:04:22;99771.73;;;4.33;73.16
84522;BME280;74758;50.066;20.008;2024-03-07T00:05:24;99771.95;;;4.32;73.31
84522;BME280;74758;50.066;20.008;2024-03-07T00:06:26;99772.40;;;4.31;73.26
84522;BME280;74758;50.066;20.008;2024-03-07T00:07:29;99774.22;;;4.30;73.25
84522;BME280;74758;50.066;20.008;2024-03-07T00:08:30;99770.38;;;4.30;73.32
84522;BME280;74758;50.066;20.008;2024-03-07T00:09:33;99771.23;;;4.30;73.12
84522;BME280;74758;50.066;20.008;2024-03-07T00:10:36;99766.17;;;4.30;73.41
84522;BME280;74758;50.066;20.008;2024-03-07T00:11:38;99770.81;;;4.31;73.36
84522;BME280;74758;50.066;20.008;2024-03-07T00:12:40;99769.41;;;4.31;73.16
84522;BME280;74758;50.066;20.008;2024-03-07T00:13:42;99770.29;;;4.31;73.23
84522;BME280;74758;50.066;20.008;2024-03-07T00:14:44;99772.88;;;4.32;73.27
84522;BME280;74758;50.066;20.008;2024-03-07T00:15:46;99769.77;;;4.31;73.51
84522;BME280;74758;50.066;20.008;2024-03-07T00:16:48;99769.75;;;4.32;73.61
84522;BME280;74758;50.066;20.008;2024-03-07T00:17:50;99769.95;;;4.31;73.40
84522;BME280;74758;50.066;20.008;2024-03-07T00:18:51;99772.57;;;4.31;73.46
84522;BME280;74758;50.066;20.008;2024-03-07T00:19:53;99771.85;;;4.31;73.86
84522;BME280;74758;50.066;20.008;2024-03-07T00:20:56;99772.85;;;4.32;73.84
84522;BME280;74758;50.066;20.008;2024-03-07T00:21:58;99769.73;;;4.32;73.84
84522;BME280;74758;50.066;20.008;2024-03-07T00:23:00;99772.44;;;4.30;73.72
84522;BME280;74758;50.066;20.008;2024-03-07T00:24:02;99772.54;;;4.28;73.77
84522;BME280;74758;50.066;20.008;2024-03-07T00:25:07;99769.27;;;4.28;73.58
84522;BME280;74758;50.066;20.008;2024-03-07T00:26:10;99769.55;;;4.29;73.72
84522;BME280;74758;50.066;20.008;2024-03-07T00:27:12;99770.55;;;4.30;73.68
84522;BME280;74758;50.066;20.008;2024-03-07T00:28:16;99766.52;;;4.30;73.68
84522;BME280;74758;50.066;20.008;2024-03-07T00:29:18;99766.57;;;4.29;73.52
84522;BME280;74758;50.066;20.008;2024-03-07T00:30:20;99766.65;;;4.28;73.91
84522;BME280;74758;50.066;20.008;2024-03-07T00:31:22;99764.22;;;4.28;73.77
84522;BME280;74758;50.066;20.008;2024-03-07T00:32:25;99764.64;;;4.27;74.05
84522;BME280;74758;50.066;20.008;2024-03-07T00:33:29;99765.44;;;4.25;73.57
84522;BME280;74758;50.066;20.008;2024-03-07T00:34:51;99763.87;;;4.25;74.09
84522;BME280;74758;50.066;20.008;2024-03-07T00:35:53;99764.48;;;4.23;73.64
84522;BME280;74758;50.066;20.008;2024-03-07T00:36:55;99765.23;;;4.22;73.43
84522;BME280;74758;50.066;20.008;2024-03-07T00:37:57;99764.20;;;4.22;73.59
84522;BME280;74758;50.066;20.008;2024-03-07T00:38:59;99765.92;;;4.22;73.80
84522;BME280;74758;50.066;20.008;2024-03-07T00:40:02;99762.34;;;4.21;73.78
84522;BME280;74758;50.066;20.008;2024-03-07T00:41:04;99761.98;;;4.21;73.78
84522;BME280;74758;50.066;20.008;2024-03-07T00:42:06;99761.90;;;4.23;73.55
84522;BME280;74758;50.066;20.008;2024-03-07T00:43:08;99758.80;;;4.22;73.78
84522;BME280;74758;50.066;20.008;2024-03-07T00:44:10;99763.30;;;4.23;73.92
84522;BME280;74758;50.066;20.008;2024-03-07T00:45:12;99762.80;;;4.22;73.44
84522;BME280;74758;50.066;20.008;2024-03-07T00:46:14;99759.73;;;4.21;73.40
84522;BME280;74758;50.066;20.008;2024-03-07T00:47:16;99757.33;;;4.21;73.59
84522;BME280;74758;50.066;20.008;2024-03-07T00:48:20;99764.33;;;4.23;73.58
84522;BME280;74758;50.066;20.008;2024-03-07T00:49:23;99761.39;;;4.23;73.74
84522;BME280;74758;50.066;20.008;2024-03-07T00:50:24;99764.72;;;4.22;73.69
84522;BME280;74758;50.066;20.008;2024-03-07T00:51:27;99761.79;;;4.22;73.67
84522;BME280;74758;50.066;20.008;2024-03-07T00:52:28;99763.64;;;4.23;74.06
84522;BME280;74758;50.066;20.008;2024-03-07T00:53:30;99761.34;;;4.23;73.54
84522;BME280;74758;50.066;20.008;2024-03-07T00:54:32;99762.04;;;4.23;73.76
84522;BME280;74758;50.066;20.008;2024-03-07T00:55:34;99761.72;;;4.23;73.78
84522;BME280;74758;50.066;20.008;2024-03-07T00:56:36;99762.92;;;4.23;73.50
84522;BME280;74758;50.066;20.008;2024-03-07T00:57:38;99760.65;;;4.23;74.10
84522;BME280;74758;50.066;20.008;2024-03-07T00:58:39;99762.89;;;4.24;74.00
84522;BME280;74758;50.066;20.008;2024-03-07T00:59:42;99760.27;;;4.24;73.97
84522;BME280;74758;50.066;20.008;2024-03-07T01:00:44;99764.71;;;4.25;73.90
84522;BME280;74758;50.066;20.008;2024-03-07T01:01:46;99762.34;;;4.27;73.87
84522;BME280;74758;50.066;20.008;2024-03-07T01:02:47;99760.89;;;4.28;73.55
84522;BME280;74758;50.066;20.008;2024-03-07T01:03:49;99762.98;;;4.31;73.75
84522;BME280;74758;50.066;20.008;2024-03-07T01:04:51;99758.93;;;4.32;73.74
84522;BME280;74758;50.066;20.008;2024-03-07T01:05:53;99760.44;;;4.33;73.47
84522;BME280;74758;50.066;20.008;2024-03-07T01:06:54;99760.42;;;4.33;73.47
84522;BME280;74758;50.066;20.008;2024-03-07T01:07:56;99759.71;;;4.34;73.52
84522;BME280;74758;50.066;20.008;2024-03-07T01:08:58;99760.39;;;4.34;73.49
84522;BME280;74758;50.066;20.008;2024-03-07T01:10:00;99760.77;;;4.33;73.49
84522;BME280;74758;50.066;20.008;2024-03-07T01:11:03;99758.65;;;4.34;73.43
84522;BME280;74758;50.066;20.008;2024-03-07T01:12:11;99758.31;;;4.34;73.83
84522;BME280;74758;50.066;20.008;2024-03-07T01:13:14;99755.63;;;4.32;73.41
84522;BME280;74758;50.066;20.008;2024-03-07T01:14:21;99759.52;;;4.31;73.51
84522;BME280;74758;50.066;20.008;2024-03-07T01:15:23;99758.66;;;4.31;73.78
84522;BME280;74758;50.066;20.008;2024-03-07T01:16:25;99756.29;;;4.30;73.75
84522;BME280;74758;50.066;20.008;2024-03-07T01:17:27;99755.46;;;4.29;73.74
84522;BME280;74758;50.066;20.008;2024-03-07T01:18:29;99758.74;;;4.29;73.50
84522;BME280;74758;50.066;20.008;2024-03-07T01:19:31;99758.36;;;4.27;73.54
84522;BME280;74758;50.066;20.008;2024-03-07T01:20:32;99758.41;;;4.26;73.18
84522;BME280;74758;50.066;20.008;2024-03-07T01:21:35;99759.00;;;4.25;73.45
84522;BME280;74758;50.066;20.008;2024-03-07T01:22:39;99759.20;;;4.24;73.63
84522;BME280;74758;50.066;20.008;2024-03-07T01:23:41;99760.46;;;4.24;73.35
84522;BME280;74758;50.066;20.008;2024-03-07T01:24:43;99762.80;;;4.22;73.13
84522;BME280;74758;50.066;20.008;2024-03-07T01:25:45;99758.21;;;4.20;73.19
84522;BME280;74758;50.066;20.008;2024-03-07T01:26:46;99760.40;;;4.19;73.30
84522;BME280;74758;50.066;20.008;2024-03-07T01:27:50;99762.73;;;4.17;73.32
84522;BME280;74758;50.066;20.008;2024-03-07T01:28:52;99759.11;;;4.17;73.22
84522;BME280;74758;50.066;20.008;2024-03-07T01:29:56;99760.80;;;4.18;73.18
84522;BME280;74758;50.066;20.008;2024-03-07T01:30:58;99759.46;;;4.17;73.34
84522;BME280;74758;50.066;20.008;2024-03-07T01:32:00;99762.30;;;4.16;73.10
84522;BME280;74758;50.066;20.008;2024-03-07T01:33:02;99759.19;;;4.15;72.82
84522;BME280;74758;50.066;20.008;2024-03-07T01:34:04;99760.27;;;4.14;73.18
84522;BME280;74758;50.066;20.008;2024-03-07T01:35:06;99763.08;;;4.14;72.95
84522;BME280;74758;50.066;20.008;2024-03-07T01:36:10;99761.89;;;4.13;73.19
84522;BME280;74758;50.066;20.008;2024-03-07T01:37:11;99763.37;;;4.15;73.12
84522;BME280;74758;50.066;20.008;2024-03-07T01:38:14;99761.55;;;4.17;73.27
84522;BME280;74758;50.066;20.008;2024-03-07T01:39:16;99763.61;;;4.17;73.00
84522;BME280;74758;50.066;20.008;2024-03-07T01:40:17;99762.98;;;4.19;73.24
84522;BME280;74758;50.066;20.008;2024-03-07T01:41:19;99760.66;;;4.20;73.25
84522;BME280;74758;50.066;20.008;2024-03-07T01:42:21;99762.15;;;4.21;73.31
84522;BME280;74758;50.066;20.008;2024-03-07T01:43:23;99765.71;;;4.23;73.34
84522;BME280;74758;50.066;20.008;2024-03-07T01:44:24;99765.34;;;4.24;73.02
84522;BME280;74758;50.066;20.008;2024-03-07T01:45:26;99764.05;;;4.25;73.34
84522;BME280;74758;50.066;20.008;2024-03-07T01:46:29;99763.34;;;4.25;73.00
84522;BME280;74758;50.066;20.008;2024-03-07T01:47:31;99761.70;;;4.23;72.76
84522;BME280;74758;50.066;20.008;2024-03-07T01:48:33;99763.48;;;4.23;72.92
84522;BME280;74758;50.066;20.008;2024-03-07T01:49:36;99758.18;;;4.21;72.66
84522;BME280;74758;50.066;20.008;2024-03-07T01:50:38;99763.66;;;4.20;72.62
84522;BME280;74758;50.066;20.008;2024-03-07T01:51:40;99759.21;;;4.18;73.03
84522;BME280;74758;50.066;20.008;2024-03-07T01:52:42;99760.95;;;4.18;72.52
84522;BME280;74758;50.066;20.008;2024-03-07T01:53:44;99758.36;;;4.18;72.62
84522;BME280;74758;50.066;20.008;2024-03-07T01:54:47;99757.23;;;4.16;72.84
84522;BME280;74758;50.066;20.008;2024-03-07T01:55:50;99760.70;;;4.16;72.89
84522;BME280;74758;50.066;20.008;2024-03-07T01:56:52;99759.96;;;4.17;73.05
84522;BME280;74758;50.066;20.008;2024-03-07T01:57:59;99758.09;;;4.17;72.58
84522;BME280;74758;50.066;20.008;2024-03-07T01:59:03;99757.23;;;4.16;72.70
84522;BME280;74758;50.066;20.008;2024-03-07T02:00:07;99755.67;;;4.16;72.63
84522;BME280;74758;50.066;20.008;2024-03-07T02:01:09;99757.90;;;4.17;72.67
84522;BME280;74758;50.066;20.008;2024-03-07T02:02:11;99756.84;;;4.17;72.67
84522;BME280;74758;50.066;20.008;2024-03-07T02:03:16;99758.27;;;4.16;72.43
84522;BME280;74758;50.066;20.008;2024-03-07T02:04:18;99756.91;;;4.16;72.31
84522;BME280;74758;50.066;20.008;2024-03-07T02:05:21;99755.29;;;4.13;72.46
84522;BME280;74758;50.066;20.008;2024-03-07T02:06:23;99755.60;;;4.11;72.47
84522;BME280;74758;50.066;20.008;2024-03-07T02:07:26;99756.11;;;4.08;72.51
84522;BME280;74758;50.066;20.008;2024-03-07T02:08:28;99754.41;;;4.07;72.25
84522;BME280;74758;50.066;20.008;2024-03-07T02:09:30;99751.68;;;4.06;72.50
84522;BME280;74758;50.066;20.008;2024-03-07T02:10:32;99754.59;;;4.07;72.52
84522;BME280;74758;50.066;20.008;2024-03-07T02:11:34;99752.73;;;4.06;72.14
84522;BME280;74758;50.066;20.008;2024-03-07T02:12:36;99752.07;;;4.05;72.42
84522;BME280;74758;50.066;20.008;2024-03-07T02:13:38;99751.00;;;4.06;72.22
84522;BME280;74758;50.066;20.008;2024-03-07T02:14:39;99750.06;;;4.07;72.17
84522;BME280;74758;50.066;20.008;2024-03-07T02:15:41;99747.27;;;4.07;72.30
84522;BME280;74758;50.066;20.008;2024-03-07T02:16:44;99746.69;;;4.08;72.54
84522;BME280;74758;50.066;20.008;2024-03-07T02:17:46;99748.41;;;4.09;72.43
84522;BME280;74758;50.066;20.008;2024-03-07T02:18:48;99749.96;;;4.09;72.39
84522;BME280;74758;50.066;20.008;2024-03-07T02:19:51;99747.40;;;4.08;72.52
84522;BME280;74758;50.066;20.008;2024-03-07T02:20:53;99751.16;;;4.06;72.35
84522;BME280;74758;50.066;20.008;2024-03-07T02:21:56;99746.34;;;4.05;72.29
84522;BME280;74758;50.066;20.008;2024-03-07T02:22:58;99745.84;;;4.05;72.59
84522;BME280;74758;50.066;20.008;2024-03-07T02:24:00;99742.04;;;4.05;72.65
84522;BME280;74758;50.066;20.008;2024-03-07T02:25:01;99746.30;;;4.06;72.56
84522;BME280;74758;50.066;20.008;2024-03-07T02:26:03;99745.10;;;4.06;72.53
84522;BME280;74758;50.066;20.008;2024-03-07T02:27:05;99744.98;;;4.08;72.84
84522;BME280;74758;50.066;20.008;2024-03-07T02:28:07;99746.14;;;4.09;72.65
84522;BME280;74758;50.066;20.008;2024-03-07T02:29:09;99745.15;;;4.11;72.78
84522;BME280;74758;50.066;20.008;2024-03-07T02:30:12;99746.69;;;4.11;72.64
84522;BME280;74758;50.066;20.008;2024-03-07T02:31:14;99747.48;;;4.13;73.01
84522;BME280;74758;50.066;20.008;2024-03-07T02:32:15;99741.65;;;4.14;72.85
84522;BME280;74758;50.066;20.008;2024-03-07T02:33:17;99743.65;;;4.17;72.80
84522;BME280;74758;50.066;20.008;2024-03-07T02:34:19;99745.51;;;4.17;72.73
84522;BME280;74758;50.066;20.008;2024-03-07T02:35:21;99744.98;;;4.18;72.64
84522;BME280;74758;50.066;20.008;2024-03-07T02:36:23;99744.66;;;4.17;72.60
84522;BME280;74758;50.066;20.008;2024-03-07T02:37:26;99744.52;;;4.17;72.57
84522;BME280;74758;50.066;20.008;2024-03-07T02:38:27;99746.34;;;4.15;72.34
84522;BME280;74758;50.066;20.008;2024-03-07T02:39:29;99744.61;;;4.14;72.70
84522;BME280;74758;50.066;20.008;2024-03-07T02:40:31;99747.27;;;4.14;72.48
84522;BME280;74758;50.066;20.008;2024-03-07T02:41:33;99746.83;;;4.12;72.41
84522;BME280;74758;50.066;20.008;2024-03-07T02:42:36;99748.79;;;4.08;72.16
84522;BME280;74758;50.066;20.008;2024-03-07T02:43:37;99748.67;;;4.04;72.45
84522;BME280;74758;50.066;20.008;2024-03-07T02:44:39;99749.48;;;4.02;72.43
84522;BME280;74758;50.066;20.008;2024-03-07T02:45:42;99752.86;;;4.01;72.85
84522;BME280;74758;50.066;20.008;2024-03-07T02:46:44;99752.62;;;3.99;72.68
84522;BME280;74758;50.066;20.008;2024-03-07T02:47:45;99750.91;;;3.99;72.60
84522;BME280;74758;50.066;20.008;2024-03-07T02:48:47;99751.77;;;3.98;72.92
84522;BME280;74758;50.066;20.008;2024-03-07T02:49:49;99754.70;;;3.99;72.90
84522;BME280;74758;50.066;20.008;2024-03-07T02:50:51;99750.15;;;3.99;72.65
84522;BME280;74758;50.066;20.008;2024-03-07T02:51:52;99751.05;;;3.99;72.59
84522;BME280;74758;50.066;20.008;2024-03-07T02:52:54;99751.37;;;3.96;72.77
84522;BME280;74758;50.066;20.008;2024-03-07T02:53:56;99747.98;;;3.95;72.80
84522;BME280;74758;50.066;20.008;2024-03-07T02:54:58;99751.53;;;3.93;72.66
84522;BME280;74758;50.066;20.008;2024-03-07T02:55:59;99754.79;;;3.91;72.47
84522;BME280;74758;50.066;20.008;2024-03-07T02:57:01;99753.66;;;3.89;72.68
84522;BME280;74758;50.066;20.008;2024-03-07T02:58:03;99752.39;;;3.87;72.78
84522;BME280;74758;50.066;20.008;2024-03-07T02:59:05;99753.77;;;3.84;72.84
84522;BME280;74758;50.066;20.008;2024-03-07T03:00:08;99752.59;;;3.83;72.95
84522;BME280;74758;50.066;20.008;2024-03-07T03:01:28;99754.42;;;3.81;72.93
84522;BME280;74758;50.066;20.008;2024-03-07T03:02:30;99755.23;;;3.82;72.69
84522;BME280;74758;50.066;20.008;2024-03-07T03:03:32;99754.21;;;3.82;72.67
84522;BME280;74758;50.066;20.008;2024-03-07T03:04:33;99752.21;;;3.83;72.98
84522;BME280;74758;50.066;20.008;2024-03-07T03:05:35;99754.45;;;3.84;72.60
84522;BME280;74758;50.066;20.008;2024-03-07T03:06:37;99750.04;;;3.82;72.53
84522;BME280;74758;50.066;20.008;2024-03-07T03:07:39;99749.77;;;3.81;72.86
84522;BME280;74758;50.066;20.008;2024-03-07T03:08:41;99751.84;;;3.77;72.60
84522;BME280;74758;50.066;20.008;2024-03-07T03:09:43;99757.95;;;3.77;72.64
84522;BME280;74758;50.066;20.008;2024-03-07T03:10:45;99757.46;;;3.77;72.67
84522;BME280;74758;50.066;20.008;2024-03-07T03:11:46;99755.30;;;3.75;72.79
84522;BME280;74758;50.066;20.008;2024-03-07T03:12:48;99755.05;;;3.73;72.54
84522;BME280;74758;50.066;20.008;2024-03-07T03:13:50;99757.05;;;3.72;72.50
84522;BME280;74758;50.066;20.008;2024-03-07T03:14:52;99756.31;;;3.69;72.87
84522;BME280;74758;50.066;20.008;2024-03-07T03:15:55;99757.46;;;3.67;72.64
84522;BME280;74758;50.066;20.008;2024-03-07T03:16:57;99756.92;;;3.64;72.25
84522;BME280;74758;50.066;20.008;2024-03-07T03:17:59;99755.15;;;3.62;72.59
84522;BME280;74758;50.066;20.008;2024-03-07T03:19:02;99754.04;;;3.60;72.59
84522;BME280;74758;50.066;20.008;2024-03-07T03:20:04;99754.73;;;3.60;72.64
84522;BME280;74758;50.066;20.008;2024-03-07T03:21:16;99754.95;;;3.59;72.64
84522;BME280;74758;50.066;20.008;2024-03-07T03:22:18;99754.06;;;3.60;72.57
84522;BME280;74758;50.066;20.008;2024-03-07T03:23:20;99753.38;;;3.59;72.38
84522;BME280;74758;50.066;20.008;2024-03-07T03:24:22;99754.23;;;3.60;72.96
84522;BME280;74758;50.066;20.008;2024-03-07T03:25:24;99757.42;;;3.58;72.65
84522;BME280;74758;50.066;20.008;2024-03-07T03:26:26;99753.14;;;3.57;72.49
84522;BME280;74758;50.066;20.008;2024-03-07T03:27:28;99752.52;;;3.56;72.66
84522;BME280;74758;50.066;20.008;2024-03-07T03:28:30;99755.36;;;3.55;72.54
84522;BME280;74758;50.066;20.008;2024-03-07T03:29:33;99754.17;;;3.54;72.76
84522;BME280;74758;50.066;20.008;2024-03-07T03:30:39;99754.12;;;3.52;73.00
84522;BME280;74758;50.066;20.008;2024-03-07T03:31:42;99757.08;;;3.52;73.06
84522;BME280;74758;50.066;20.008;2024-03-07T03:32:45;99754.13;;;3.52;72.85
84522;BME280;74758;50.066;20.008;2024-03-07T03:33:48;99756.09;;;3.51;72.89
84522;BME280;74758;50.066;20.008;2024-03-07T03:34:50;99758.26;;;3.49;72.75
84522;BME280;74758;50.066;20.008;2024-03-07T03:35:53;99753.70;;;3.47;72.72
84522;BME280;74758;50.066;20.008;2024-03-07T03:36:57;99757.23;;;3.46;72.83
84522;BME280;74758;50.066;20.008;2024-03-07T03:37:59;99753.80;;;3.44;72.58
84522;BME280;74758;50.066;20.008;2024-03-07T03:39:01;99754.73;;;3.43;72.73
84522;BME280;74758;50.066;20.008;2024-03-07T03:40:03;99760.14;;;3.43;72.70
84522;BME280;74758;50.066;20.008;2024-03-07T03:41:06;99755.64;;;3.43;72.82
84522;BME280;74758;50.066;20.008;2024-03-07T03:42:07;99757.51;;;3.44;72.70
84522;BME280;74758;50.066;20.008;2024-03-07T03:43:09;99757.91;;;3.46;72.79
84522;BME280;74758;50.066;20.008;2024-03-07T03:44:11;99759.08;;;3.47;73.05
84522;BME280;74758;50.066;20.008;2024-03-07T03:45:13;99757.96;;;3.48;73.06
84522;BME280;74758;50.066;20.008;2024-03-07T03:46:17;99756.10;;;3.50;73.07
84522;BME280;74758;50.066;20.008;2024-03-07T03:47:19;99760.55;;;3.52;72.86
84522;BME280;74758;50.066;20.008;2024-03-07T03:48:21;99757.45;;;3.51;72.90
84522;BME280;74758;50.066;20.008;2024-03-07T03:49:23;99762.17;;;3.51;73.01
84522;BME280;74758;50.066;20.008;2024-03-07T03:50:25;99759.98;;;3.49;72.83
84522;BME280;74758;50.066;20.008;2024-03-07T03:51:27;99761.58;;;3.49;72.97
84522;BME280;74758;50.066;20.008;2024-03-07T03:52:29;99759.46;;;3.46;73.00
84522;BME280;74758;50.066;20.008;2024-03-07T03:53:32;99760.36;;;3.45;72.68
84522;BME280;74758;50.066;20.008;2024-03-07T03:54:33;99756.87;;;3.46;72.87
84522;BME280;74758;50.066;20.008;2024-03-07T03:55:35;99760.88;;;3.46;72.80
84522;BME280;74758;50.066;20.008;2024-03-07T03:56:38;99762.73;;;3.46;72.81
84522;BME280;74758;50.066;20.008;2024-03-07T03:57:43;99758.20;;;3.47;72.76
84522;BME280;74758;50.066;20.008;2024-03-07T03:58:45;99759.89;;;3.48;72.63
84522;BME280;74758;50.066;20.008;2024-03-07T03:59:46;99759.10;;;3.47;72.72
84522;BME280;74758;50.066;20.008;2024-03-07T04:00:48;99756.92;;;3.45;72.66
84522;BME280;74758;50.066;20.008;2024-03-07T04:01:50;99758.78;;;3.42;72.40
84522;BME280;74758;50.066;20.008;2024-03-07T04:02:52;99760.08;;;3.41;72.61
84522;BME280;74758;50.066;20.008;2024-03-07T04:03:54;99754.54;;;3.41;72.87
84522;BME280;74758;50.066;20.008;2024-03-07T04:04:56;99760.99;;;3.40;72.74
84522;BME280;74758;50.066;20.008;2024-03-07T04:06:00;99761.92;;;3.39;72.52
84522;BME280;74758;50.066;20.008;2024-03-07T04:07:02;99759.53;;;3.38;72.71
84522;BME280;74758;50.066;20.008;2024-03-07T04:08:05;99758.89;;;3.37;72.43
84522;BME280;74758;50.066;20.008;2024-03-07T04:09:07;99762.48;;;3.35;72.29
84522;BME280;74758;50.066;20.008;2024-03-07T04:10:09;99762.47;;;3.32;72.76
84522;BME280;74758;50.066;20.008;2024-03-07T04:11:11;99761.17;;;3.30;72.98
84522;BME280;74758;50.066;20.008;2024-03-07T04:12:14;99759.11;;;3.30;72.71
84522;BME280;74758;50.066;20.008;2024-03-07T04:13:17;99763.81;;;3.30;72.90
84522;BME280;74758;50.066;20.008;2024-03-07T04:14:18;99765.58;;;3.29;72.83
84522;BME280;74758;50.066;20.008;2024-03-07T04:15:21;99764.06;;;3.28;72.91
84522;BME280;74758;50.066;20.008;2024-03-07T04:16:25;99767.16;;;3.29;72.91
84522;BME280;74758;50.066;20.008;2024-03-07T04:17:27;99765.41;;;3.29;72.83
84522;BME280;74758;50.066;20.008;2024-03-07T04:18:29;99767.14;;;3.29;72.82
84522;BME280;74758;50.066;20.008;2024-03-07T04:19:32;99762.95;;;3.29;72.88
84522;BME280;74758;50.066;20.008;2024-03-07T04:20:34;99767.20;;;3.31;72.96
84522;BME280;74758;50.066;20.008;2024-03-07T04:21:36;99768.22;;;3.29;72.91
84522;BME280;74758;50.066;20.008;2024-03-07T04:22:39;99765.92;;;3.26;72.80
84522;BME280;74758;50.066;20.008;2024-03-07T04:23:40;99765.11;;;3.25;72.84
84522;BME280;74758;50.066;20.008;2024-03-07T04:24:42;99767.14;;;3.22;72.80
84522;BME280;74758;50.066;20.008;2024-03-07T04:25:44;99771.54;;;3.21;72.95
84522;BME280;74758;50.066;20.008;2024-03-07T04:26:46;99769.40;;;3.18;72.97
84522;BME280;74758;50.066;20.008;2024-03-07T04:27:48;99771.16;;;3.18;73.12
84522;BME280;74758;50.066;20.008;2024-03-07T04:28:51;99770.61;;;3.18;73.02
84522;BME280;74758;50.066;20.008;2024-03-07T04:29:53;99772.63;;;3.20;73.33
84522;BME280;74758;50.066;20.008;2024-03-07T04:30:55;99767.76;;;3.20;73.37
84522;BME280;74758;50.066;20.008;2024-03-07T04:31:57;99771.00;;;3.21;73.33
84522;BME280;74758;50.066;20.008;2024-03-07T04:32:59;99773.05;;;3.22;73.22
84522;BME280;74758;50.066;20.008;2024-03-07T04:34:01;99767.16;;;3.22;73.17
84522;BME280;74758;50.066;20.008;2024-03-07T04:35:04;99771.59;;;3.20;73.00
84522;BME280;74758;50.066;20.008;2024-03-07T04:36:09;99772.05;;;3.18;73.18
84522;BME280;74758;50.066;20.008;2024-03-07T04:37:11;99771.58;;;3.17;73.26
84522;BME280;74758;50.066;20.008;2024-03-07T04:38:13;99770.85;;;3.14;73.34
84522;BME280;74758;50.066;20.008;2024-03-07T04:39:17;99774.20;;;3.13;73.35
84522;BME280;74758;50.066;20.008;2024-03-07T04:40:39;99771.11;;;3.12;73.32
84522;BME280;74758;50.066;20.008;2024-03-07T04:41:40;99771.48;;;3.12;73.46
84522;BME280;74758;50.066;20.008;2024-03-07T04:42:47;99772.58;;;3.11;73.27
84522;BME280;74758;50.066;20.008;2024-03-07T04:43:51;99777.75;;;3.08;73.42
84522;BME280;74758;50.066;20.008;2024-03-07T04:44:53;99780.33;;;3.05;73.32
84522;BME280;74758;50.066;20.008;2024-03-07T04:45:55;99779.45;;;3.02;73.41
84522;BME280;74758;50.066;20.008;2024-03-07T04:46:57;99778.14;;;3.01;73.48
84522;BME280;74758;50.066;20.008;2024-03-07T04:48:00;99780.10;;;3.00;73.38
84522;BME280;74758;50.066;20.008;2024-03-07T04:49:02;99780.07;;;3.01;73.66
84522;BME280;74758;50.066;20.008;2024-03-07T04:50:05;99780.86;;;3.02;73.69
84522;BME280;74758;50.066;20.008;2024-03-07T04:51:07;99782.06;;;3.02;73.69
84522;BME280;74758;50.066;20.008;2024-03-07T04:52:10;99782.37;;;3.03;73.78
84522;BME280;74758;50.066;20.008;2024-03-07T04:53:11;99782.83;;;3.04;73.75
84522;BME280;74758;50.066;20.008;2024-03-07T04:54:13;99784.70;;;3.05;73.61
84522;BME280;74758;50.066;20.008;2024-03-07T04:55:15;99783.63;;;3.05;73.98
84522;BME280;74758;50.066;20.008;2024-03-07T04:56:17;99782.11;;;3.05;73.75
84522;BME280;74758;50.066;20.008;2024-03-07T04:57:19;99784.73;;;3.04;74.12
84522;BME280;74758;50.066;20.008;2024-03-07T04:58:21;99786.14;;;3.04;74.04
84522;BME280;74758;50.066;20.008;2024-03-07T04:59:23;99785.04;;;3.02;74.10
84522;BME280;74758;50.066;20.008;2024-03-07T05:00:25;99788.35;;;3.01;74.03
84522;BME280;74758;50.066;20.008;2024-03-07T05:01:27;99786.30;;;3.01;74.18
84522;BME280;74758;50.066;20.008;2024-03-07T05:02:28;99789.64;;;3.00;74.28
84522;BME280;74758;50.066;20.008;2024-03-07T05:03:31;99791.24;;;2.99;74.18
84522;BME280;74758;50.066;20.008;2024-03-07T05:04:33;99795.55;;;3.00;74.40
84522;BME280;74758;50.066;20.008;2024-03-07T05:05:35;99791.05;;;3.00;74.37
84522;BME280;74758;50.066;20.008;2024-03-07T05:06:37;99795.10;;;2.98;74.39
84522;BME280;74758;50.066;20.008;2024-03-07T05:07:39;99795.64;;;2.98;74.34
84522;BME280;74758;50.066;20.008;2024-03-07T05:08:41;99795.96;;;2.99;74.31
84522;BME280;74758;50.066;20.008;2024-03-07T05:09:46;99793.70;;;2.99;74.46
84522;BME280;74758;50.066;20.008;2024-03-07T05:10:47;99797.23;;;2.98;74.62
84522;BME280;74758;50.066;20.008;2024-03-07T05:11:49;99797.85;;;2.95;74.61
84522;BME280;74758;50.066;20.008;2024-03-07T05:12:55;99796.87;;;2.95;74.37
84522;BME280;74758;50.066;20.008;2024-03-07T05:14:00;99798.14;;;2.94;74.54
84522;BME280;74758;50.066;20.008;2024-03-07T05:15:04;99799.97;;;2.92;74.58
84522;BME280;74758;50.066;20.008;2024-03-07T05:16:07;99800.31;;;2.92;74.55
84522;BME280;74758;50.066;20.008;2024-03-07T05:17:09;99799.78;;;2.92;74.48
84522;BME280;74758;50.066;20.008;2024-03-07T05:18:10;99802.79;;;2.91;74.33
84522;BME280;74758;50.066;20.008;2024-03-07T05:19:14;99804.30;;;2.92;74.71
84522;BME280;74758;50.066;20.008;2024-03-07T05:20:16;99803.23;;;2.92;74.54
84522;BME280;74758;50.066;20.008;2024-03-07T05:21:19;99805.64;;;2.93;74.63
84522;BME280;74758;50.066;20.008;2024-03-07T05:22:47;99804.34;;;2.94;74.53
84522;BME280;74758;50.066;20.008;2024-03-07T05:23:54;99804.48;;;2.95;74.33
84522;BME280;74758;50.066;20.008;2024-03-07T05:24:56;99804.50;;;2.95;74.43
84522;BME280;74758;50.066;20.008;2024-03-07T05:26:00;99808.11;;;2.96;74.06
84522;BME280;74758;50.066;20.008;2024-03-07T05:27:02;99808.61;;;2.95;74.26
84522;BME280;74758;50.066;20.008;2024-03-07T05:28:04;99808.80;;;2.96;74.19
84522;BME280;74758;50.066;20.008;2024-03-07T05:29:08;99812.19;;;2.97;74.37
84522;BME280;74758;50.066;20.008;2024-03-07T05:30:10;99810.46;;;2.97;74.25
84522;BME280;74758;50.066;20.008;2024-03-07T05:31:15;99809.92;;;2.97;74.22